Time;durP1;ratioP1;P1;durP2;ratioP2;P2;SDS_P1;SDS_P2;PMS_P1;PMS_P2;Temp;Humidity;BMP_temperature;BMP_pressure;BME280_temperature;BME280_humidity;BME280_pressure;Samples;Min_cycle;Max_cycle;Signal;HPM_P1;HPM_P2
2023/05/24 00:00:25;;;;;;;0.85;0.85;;;13.90;99.90;;;;;;5073589;28;20499;-78
2023/05/24 00:02:51;;;;;;;0.17;0.17;;;13.90;99.90;;;;;;5072464;28;20021;-84
2023/05/24 00:06:00;;;;;;;0.20;0.20;;;13.90;99.90;;;;;;5073197;28;20657;-87
2023/05/24 00:08:27;;;;;;;0.20;0.20;;;14.00;99.90;;;;;;4962087;28;20035;-88
2023/05/24 00:10:52;;;;;;;0.20;0.20;;;13.70;99.90;;;;;;4968069;28;20340;-85
2023/05/24 00:13:19;;;;;;;0.13;0.13;;;13.60;99.90;;;;;;4963341;28;20085;-84
2023/05/24 00:15:46;;;;;;;0.20;0.20;;;13.50;99.90;;;;;;4967946;28;20063;-91
2023/05/24 00:18:12;;;;;;;0.10;0.10;;;13.50;99.90;;;;;;4966980;28;20101;-85
2023/05/24 00:20:38;;;;;;;0.17;0.17;;;13.50;99.90;;;;;;4968420;28;20027;-86
2023/05/24 00:23:06;;;;;;;0.28;0.28;;;13.50;99.90;;;;;;4965241;28;20045;-84
2023/05/24 00:25:32;;;;;;;0.10;0.10;;;13.50;99.90;;;;;;4950164;28;20288;-90
2023/05/24 00:27:58;;;;;;;0.20;0.20;;;;;;;;;;4954878;28;20043;-89
2023/05/24 00:30:24;;;;;;;0.10;0.10;;;13.40;99.90;;;;;;4967579;28;20051;-90
2023/05/24 00:32:50;;;;;;;0.10;0.10;;;;;;;;;;4963187;28;20046;-90
2023/05/24 00:35:16;;;;;;;0.20;0.20;;;13.40;99.90;;;;;;4961853;28;20023;-86
2023/05/24 00:37:44;;;;;;;0.30;0.30;;;13.40;99.90;;;;;;4965253;28;20454;-85
2023/05/24 00:40:11;;;;;;;0.17;0.17;;;12.70;99.90;;;;;;4960199;28;20421;-78
2023/05/24 00:42:37;;;;;;;0.40;0.40;;;13.40;99.90;;;;;;4961902;28;20065;-88
2023/05/24 00:45:07;;;;;;;0.17;0.17;;;13.30;99.90;;;;;;5008578;28;20167;-78
2023/05/24 00:47:33;;;;;;;1.48;1.40;;;12.00;99.90;;;;;;5065981;28;20340;-78
2023/05/24 00:50:13;;;;;;;0.20;0.20;;;13.30;99.90;;;;;;5064211;28;20036;-86
2023/05/24 00:52:40;;;;;;;0.10;0.10;;;13.30;99.90;;;;;;5066268;28;20226;-78
2023/05/24 00:55:07;;;;;;;1.58;1.48;;;;;;;;;;5067546;28;20016;-89
2023/05/24 00:57:34;;;;;;;1.00;1.00;;;13.10;99.90;;;;;;5068610;28;20039;-78
2023/05/24 01:00:00;;;;;;;0.52;0.52;;;13.10;99.90;;;;;;5063206;28;20020;-77
2023/05/24 01:02:28;;;;;;;0.20;0.20;;;;;;;;;;5065461;28;20308;-78
2023/05/24 01:04:55;;;;;;;0.10;0.10;;;13.10;99.90;;;;;;5072265;28;20016;-80
2023/05/24 01:07:41;;;;;;;0.20;0.20;;;13.00;99.90;;;;;;5053549;28;20071;-78
2023/05/24 01:10:13;;;;;;;0.20;0.20;;;13.00;99.90;;;;;;5049167;28;20038;-84
2023/05/24 01:13:05;;;;;;;0.10;0.10;;;13.00;99.90;;;;;;5071764;28;20043;-80
2023/05/24 01:16:00;;;;;;;0.43;0.43;;;13.00;99.90;;;;;;5052333;28;20016;-78
2023/05/24 01:18:45;;;;;;;0.28;0.28;;;12.60;99.90;;;;;;4965740;28;20099;-80
2023/05/24 01:22:00;;;;;;;0.20;0.20;;;13.50;99.90;;;;;;4971807;28;20034;-77
2023/05/24 01:25:13;;;;;;;0.10;0.10;;;12.30;99.90;;;;;;4952179;28;20030;-80
2023/05/24 01:27:40;;;;;;;0.10;0.10;;;12.80;99.90;;;;;;4900974;29;20111;-81
2023/05/24 01:30:08;;;;;;;0.13;0.13;;;12.80;99.90;;;;;;4893545;29;20040;-82
2023/05/24 01:32:43;;;;;;;0.20;0.20;;;12.80;99.90;;;;;;4909286;29;20240;-79
2023/05/24 01:35:13;;;;;;;0.10;0.10;;;12.70;99.90;;;;;;4914017;29;20032;-80
2023/05/24 01:37:39;;;;;;;0.10;0.10;;;13.20;99.90;;;;;;4908789;29;20100;-77
2023/05/24 01:40:06;;;;;;;0.10;0.10;;;9.60;99.90;;;;;;4905730;29;20055;-77
2023/05/24 01:43:05;;;;;;;0.10;0.10;;;12.70;99.90;;;;;;4914707;29;20566;-77
2023/05/24 01:46:09;;;;;;;0.10;0.10;;;12.70;99.90;;;;;;4911135;29;20039;-77
2023/05/24 01:49:25;;;;;;;0.15;0.15;;;12.80;99.90;;;;;;4875769;29;20046;-78
2023/05/24 01:52:24;;;;;;;0.10;0.10;;;12.70;99.90;;;;;;4803001;30;20036;-77
2023/05/24 01:54:56;;;;;;;0.10;0.10;;;12.90;99.90;;;;;;4791950;29;20334;-76
2023/05/24 01:57:25;;;;;;;0.20;0.20;;;12.60;99.90;;;;;;4812199;29;20066;-77
2023/05/24 01:59:59;;;;;;;0.10;0.10;;;12.50;99.90;;;;;;4827280;29;20026;-77
2023/05/24 02:02:27;;;;;;;0.10;0.10;;;12.50;99.90;;;;;;4837878;29;20034;-78
2023/05/24 02:04:53;;;;;;;0.20;0.20;;;12.50;99.90;;;;;;4842692;29;20037;-78
2023/05/24 02:07:22;;;;;;;0.20;0.20;;;12.50;99.90;;;;;;4868144;29;20388;-77
2023/05/24 02:09:54;;;;;;;0.20;0.20;;;12.50;99.90;;;;;;4862801;29;20033;-79
2023/05/24 02:12:23;;;;;;;0.10;0.10;;;12.40;99.90;;;;;;4836568;29;20053;-77
2023/05/24 02:14:53;;;;;;;0.10;0.10;;;12.40;99.90;;;;;;4864842;29;20069;-78
2023/05/24 02:17:26;;;;;;;0.20;0.20;;;12.40;99.90;;;;;;4865206;29;20093;-78
2023/05/24 02:19:52;;;;;;;0.17;0.17;;;11.70;99.90;;;;;;4848681;29;20042;-78
2023/05/24 02:22:26;;;;;;;0.10;0.10;;;12.40;99.90;;;;;;4932828;28;20068;-77
2023/05/24 02:24:54;;;;;;;;;;;12.40;99.90;;;;;;5029754;28;20035;-76
2023/05/24 02:27:25;;;;;;;0.20;0.20;;;12.30;99.90;;;;;;5043842;28;19967;-78
2023/05/24 02:29:56;;;;;;;0.10;0.10;;;13.20;99.90;;;;;;5045739;28;20410;-78
2023/05/24 02:32:25;;;;;;;0.20;0.20;;;12.20;99.90;;;;;;5044118;28;20052;-77
2023/05/24 02:35:11;;;;;;;0.20;0.20;;;12.20;99.90;;;;;;5064079;28;20017;-77
2023/05/24 02:37:46;;;;;;;0.10;0.10;;;12.00;99.90;;;;;;4992110;28;20119;-77
2023/05/24 02:40:33;;;;;;;0.20;0.20;;;12.10;99.90;;;;;;5001486;28;20119;-78
2023/05/24 02:42:59;;;;;;;0.17;0.17;;;12.20;99.90;;;;;;4970198;28;20112;-78
2023/05/24 02:45:54;;;;;;;0.10;0.10;;;12.10;99.90;;;;;;5000764;28;20035;-77
2023/05/24 02:48:43;;;;;;;0.10;0.10;;;12.10;99.90;;;;;;4990877;28;20520;-76
2023/05/24 02:51:19;;;;;;;0.10;0.10;;;12.10;99.90;;;;;;4947038;28;20340;-77
2023/05/24 02:53:44;;;;;;;0.20;0.20;;;12.60;99.90;;;;;;4956357;28;20050;-78
2023/05/24 02:56:12;;;;;;;0.15;0.15;;;;;;;;;;4970085;28;20034;-77
2023/05/24 02:58:39;;;;;;;0.20;0.20;;;12.00;99.90;;;;;;4952435;28;20023;-78
2023/05/24 03:01:15;;;;;;;0.20;0.20;;;11.90;99.90;;;;;;4963977;28;20277;-76
2023/05/24 03:03:42;;;;;;;0.20;0.20;;;11.90;99.90;;;;;;4978223;28;20448;-77
2023/05/24 03:06:31;;;;;;;0.10;0.10;;;11.90;99.90;;;;;;4985649;28;20042;-77
2023/05/24 03:08:59;;;;;;;0.10;0.10;;;11.90;99.90;;;;;;4969937;28;20097;-76
2023/05/24 03:11:26;;;;;;;0.10;0.10;;;11.90;99.90;;;;;;4972106;28;20121;-77
2023/05/24 03:13:52;;;;;;;0.20;0.20;;;11.90;99.90;;;;;;4971776;28;20073;-77
2023/05/24 03:16:19;;;;;;;0.10;0.10;;;11.80;99.90;;;;;;4956163;28;20027;-78
2023/05/24 03:18:45;;;;;;;0.10;0.10;;;12.20;99.90;;;;;;4977514;28;20035;-79
2023/05/24 03:21:15;;;;;;;0.10;0.10;;;11.80;99.90;;;;;;4974133;28;20085;-76
2023/05/24 03:23:45;;;;;;;0.10;0.10;;;11.80;99.90;;;;;;4972314;28;20329;-76
2023/05/24 03:26:12;;;;;;;0.32;0.32;;;11.80;99.90;;;;;;4973862;28;20422;-77
2023/05/24 03:28:41;;;;;;;0.10;0.10;;;11.70;99.90;;;;;;5005721;28;20057;-78
2023/05/24 03:31:07;;;;;;;0.20;0.20;;;11.80;99.90;;;;;;5006178;28;20049;-77
2023/05/24 03:33:33;;;;;;;0.10;0.10;;;11.80;99.90;;;;;;5007794;28;20113;-77
2023/05/24 03:36:01;;;;;;;0.10;0.10;;;11.80;99.90;;;;;;5005553;28;20032;-77
2023/05/24 03:38:28;;;;;;;0.10;0.10;;;12.30;99.90;;;;;;5019502;28;20321;-76
2023/05/24 03:40:56;;;;;;;0.10;0.10;;;11.70;99.90;;;;;;5063148;28;20021;-77
2023/05/24 03:43:24;;;;;;;0.20;0.20;;;11.90;99.90;;;;;;5061513;28;20044;-77
2023/05/24 03:45:52;;;;;;;0.10;0.10;;;11.90;99.90;;;;;;5051806;28;20036;-76
2023/05/24 03:48:21;;;;;;;2.88;2.75;;;11.90;99.90;;;;;;5050650;28;20256;-76
2023/05/24 03:50:47;;;;;;;0.10;0.10;;;11.30;99.90;;;;;;5046377;28;20072;-77
2023/05/24 03:53:21;;;;;;;0.20;0.20;;;11.90;99.90;;;;;;5065060;28;20066;-76
2023/05/24 03:56:06;;;;;;;0.10;0.10;;;11.00;99.90;;;;;;5092835;28;20077;-76
2023/05/24 03:58:32;;;;;;;0.10;0.10;;;11.90;99.90;;;;;;5071575;28;20055;-77
2023/05/24 04:01:00;;;;;;;0.20;0.20;;;11.90;99.90;;;;;;5070120;28;20029;-77
2023/05/24 04:03:26;;;;;;;8.27;7.53;;;11.90;99.90;;;;;;5070995;28;20025;-77
2023/05/24 04:05:53;;;;;;;0.30;0.30;;;11.90;99.90;;;;;;5072457;28;20051;-77
2023/05/24 04:08:19;;;;;;;0.20;0.20;;;11.90;99.90;;;;;;5050830;28;20024;-77
2023/05/24 04:10:46;;;;;;;0.10;0.10;;;11.90;99.90;;;;;;5066415;28;20023;-77
2023/05/24 04:13:12;;;;;;;0.10;0.10;;;12.50;99.90;;;;;;5067478;28;20290;-77
2023/05/24 04:15:40;;;;;;;0.10;0.10;;;;;;;;;;5063167;28;20067;-77
2023/05/24 04:18:07;;;;;;;0.10;0.10;;;11.90;99.90;;;;;;5067427;28;20100;-77
2023/05/24 04:20:34;;;;;;;0.17;0.17;;;11.90;99.90;;;;;;5049395;28;20206;-76
2023/05/24 04:23:01;;;;;;;0.10;0.10;;;12.00;99.90;;;;;;5068067;28;20409;-76
2023/05/24 04:25:32;;;;;;;0.52;0.52;;;12.10;99.90;;;;;;5071267;28;20702;-77
2023/05/24 04:28:22;;;;;;;0.20;0.20;;;12.10;99.90;;;;;;5067089;28;20025;-79
2023/05/24 04:30:57;;;;;;;4.57;4.38;;;12.10;99.90;;;;;;5068073;28;20020;-77
2023/05/24 04:33:25;;;;;;;0.20;0.20;;;;;;;;;;5069204;28;20048;-77
2023/05/24 04:35:52;;;;;;;0.13;0.13;;;12.20;99.90;;;;;;5048332;28;20036;-76
2023/05/24 04:38:18;;;;;;;0.20;0.20;;;12.30;99.90;;;;;;5031119;28;20233;-77
2023/05/24 04:40:51;;;;;;;0.13;0.13;;;12.30;99.90;;;;;;5067446;28;20020;-77
2023/05/24 04:43:19;;;;;;;0.20;0.20;;;12.90;99.90;;;;;;5072644;28;20013;-77
2023/05/24 04:45:48;;;;;;;0.20;0.20;;;12.70;99.90;;;;;;5069105;28;20308;-78
2023/05/24 04:48:14;;;;;;;0.20;0.20;;;12.60;99.90;;;;;;5056944;28;20314;-77
2023/05/24 04:50:52;;;;;;;0.20;0.20;;;12.70;99.90;;;;;;5075934;28;20020;-77
2023/05/24 04:53:25;;;;;;;1.50;1.45;;;12.80;99.90;;;;;;5063632;28;20049;-79
2023/05/24 04:55:54;;;;;;;16.85;15.30;;;12.70;99.90;;;;;;5062339;28;20025;-87
2023/05/24 04:58:25;;;;;;;0.20;0.20;;;13.00;99.90;;;;;;5063023;28;20032;-82
2023/05/24 05:00:54;;;;;;;0.50;0.50;;;13.80;99.90;;;;;;5064508;28;20039;-82
2023/05/24 05:03:23;;;;;;;0.10;0.10;;;13.20;99.90;;;;;;5060354;28;20032;-78
2023/05/24 05:05:52;;;;;;;0.20;0.20;;;13.50;99.90;;;;;;5062548;28;20471;-88
2023/05/24 05:08:19;;;;;;;0.50;0.50;;;13.40;99.90;;;;;;5062376;28;20027;-88
2023/05/24 05:10:45;;;;;;;7.25;6.70;;;13.40;99.90;;;;;;5061641;28;20027;-80
2023/05/24 05:13:11;;;;;;;3.38;2.97;;;13.50;99.90;;;;;;5061838;28;20217;-79
2023/05/24 05:15:36;;;;;;;1.05;1.05;;;13.30;99.90;;;;;;5061099;28;20028;-85
2023/05/24 05:18:02;;;;;;;0.70;0.70;;;13.20;99.90;;;;;;5061896;28;20086;-86
2023/05/24 05:20:28;;;;;;;2.20;2.10;;;13.60;99.90;;;;;;5062629;28;20021;-77
2023/05/24 05:22:54;;;;;;;2.38;2.25;;;13.70;99.90;;;;;;5060254;28;20092;-87
2023/05/24 05:25:20;;;;;;;0.20;0.20;;;13.80;99.90;;;;;;5065743;28;20021;-86
2023/05/24 05:27:46;;;;;;;0.65;0.65;;;13.90;99.90;;;;;;5065327;28;20198;-91
2023/05/24 05:30:12;;;;;;;0.40;0.40;;;14.00;99.90;;;;;;5064511;28;20336;-92
2023/05/24 05:32:38;;;;;;;0.20;0.20;;;14.10;99.90;;;;;;5063787;28;20112;-91
2023/05/24 05:35:46;;;;;;;0.20;0.20;;;14.20;99.90;;;;;;5063350;28;20104;-77
2023/05/24 05:38:12;;;;;;;0.20;0.20;;;14.30;99.90;;;;;;5044397;28;20032;-90
2023/05/24 05:40:38;;;;;;;0.20;0.20;;;14.40;99.90;;;;;;5061804;28;20025;-86
2023/05/24 05:43:04;;;;;;;0.45;0.45;;;;;;;;;;5060920;28;20513;-77
2023/05/24 05:45:30;;;;;;;0.20;0.20;;;14.60;99.90;;;;;;5063368;28;20426;-91
2023/05/24 05:47:55;;;;;;;0.20;0.20;;;14.70;99.90;;;;;;5063498;28;20095;-84
2023/05/24 05:50:21;;;;;;;0.28;0.28;;;14.80;99.90;;;;;;5064136;28;20025;-95
2023/05/24 05:52:47;;;;;;;0.20;0.20;;;14.90;99.90;;;;;;5064365;28;20233;-93
2023/05/24 05:55:13;;;;;;;0.20;0.20;;;15.00;99.90;;;;;;5038584;28;20534;-91
2023/05/24 05:57:39;;;;;;;4.28;4.03;;;15.10;99.90;;;;;;5069099;28;20021;-85
2023/05/24 06:00:05;;;;;;;0.75;0.75;;;12.80;99.90;;;;;;5068208;28;20533;-81
2023/05/24 06:02:34;;;;;;;0.15;0.15;;;15.50;99.90;;;;;;5074330;28;20021;-85
2023/05/24 06:04:59;;;;;;;0.10;0.10;;;15.30;99.90;;;;;;5075548;28;20031;-90
2023/05/24 06:07:25;;;;;;;0.10;0.10;;;15.70;99.90;;;;;;5084155;28;20080;-85
2023/05/24 06:10:00;;;;;;;0.28;0.28;;;16.40;99.90;;;;;;5083576;28;20004;-94
2023/05/24 06:12:26;;;;;;;0.20;0.20;;;15.80;99.90;;;;;;5077356;28;20088;-91
2023/05/24 06:14:56;;;;;;;0.20;0.20;;;16.00;99.90;;;;;;5051009;28;20052;-89
2023/05/24 06:17:23;;;;;;;0.10;0.10;;;16.10;99.90;;;;;;5067626;28;20024;-90
2023/05/24 06:19:55;;;;;;;0.20;0.20;;;16.20;99.90;;;;;;5064707;28;20241;-92
2023/05/24 06:22:21;;;;;;;0.28;0.28;;;16.40;99.90;;;;;;5064435;28;20021;-93
2023/05/24 06:24:51;;;;;;;0.20;0.20;;;16.00;99.90;;;;;;5064370;28;20021;-92
2023/05/24 06:27:16;;;;;;;0.17;0.17;;;16.60;99.90;;;;;;5044712;28;20383;-83
2023/05/24 06:29:42;;;;;;;1.15;1.10;;;16.70;99.90;;;;;;5046069;28;20058;-86
2023/05/24 06:32:08;;;;;;;0.17;0.17;;;16.80;99.90;;;;;;5044071;28;20252;-91
2023/05/24 06:34:34;;;;;;;0.20;0.20;;;16.90;99.90;;;;;;5061077;28;20061;-85
2023/05/24 06:37:01;;;;;;;0.20;0.20;;;17.00;99.90;;;;;;5061323;28;20128;-86
2023/05/24 06:39:32;;;;;;;0.20;0.20;;;15.60;99.90;;;;;;5060737;28;20031;-80
2023/05/24 06:41:57;;;;;;;0.20;0.20;;;17.30;99.90;;;;;;5060860;28;20028;-90
2023/05/24 06:44:30;;;;;;;0.10;0.10;;;17.30;99.90;;;;;;5060052;28;20031;-77
2023/05/24 06:46:56;;;;;;;0.10;0.10;;;17.40;99.90;;;;;;5041364;28;20135;-90
2023/05/24 06:49:22;;;;;;;0.50;0.50;;;17.60;99.90;;;;;;5059300;28;20112;-78
2023/05/24 06:51:49;;;;;;;0.30;0.30;;;17.80;99.90;;;;;;5058445;28;20284;-87
2023/05/24 06:54:14;;;;;;;0.20;0.20;;;18.00;99.90;;;;;;5059975;28;20016;-83
2023/05/24 06:56:40;;;;;;;0.10;0.10;;;18.00;99.90;;;;;;5058182;28;20021;-90
2023/05/24 06:59:07;;;;;;;1.38;1.27;;;18.20;99.90;;;;;;5059113;28;20515;-79
2023/05/24 07:01:33;;;;;;;0.20;0.20;;;18.20;99.90;;;;;;5057912;28;20414;-77
2023/05/24 07:04:01;;;;;;;0.60;0.60;;;18.30;99.90;;;;;;5040286;28;20024;-81
2023/05/24 07:06:27;;;;;;;1.65;1.27;;;18.40;99.90;;;;;;5061180;28;20067;-84
2023/05/24 07:08:53;;;;;;;0.10;0.10;;;18.60;99.90;;;;;;5061406;28;20619;-82
2023/05/24 07:11:22;;;;;;;0.20;0.20;;;18.80;99.90;;;;;;5068068;28;20116;-80
2023/05/24 07:13:47;;;;;;;0.25;0.25;;;19.80;99.90;;;;;;5060853;28;20090;-79
2023/05/24 07:16:13;;;;;;;0.25;0.25;;;18.90;99.90;;;;;;5059921;28;20486;-79
2023/05/24 07:18:40;;;;;;;0.20;0.20;;;18.90;99.90;;;;;;5060364;28;20256;-79
2023/05/24 07:21:06;;;;;;;3.25;3.08;;;19.00;99.90;;;;;;5060592;28;20414;-79
2023/05/24 07:23:32;;;;;;;0.30;0.30;;;19.10;99.90;;;;;;5062580;28;20027;-78
2023/05/24 07:25:58;;;;;;;0.35;0.35;;;19.20;99.90;;;;;;5060889;28;20494;-80
2023/05/24 07:28:24;;;;;;;0.63;0.63;;;19.30;99.90;;;;;;5060033;28;20040;-83
2023/05/24 07:30:50;;;;;;;0.13;0.13;;;19.40;99.90;;;;;;5060746;28;20309;-82
2023/05/24 07:33:16;;;;;;;0.20;0.20;;;19.50;99.90;;;;;;5059764;28;20057;-79
2023/05/24 07:35:50;;;;;;;0.22;0.22;;;19.60;99.90;;;;;;5060710;28;20358;-79
2023/05/24 07:38:17;;;;;;;0.10;0.10;;;19.70;99.90;;;;;;5060034;28;20039;-79
2023/05/24 07:40:42;;;;;;;0.65;0.65;;;20.00;99.90;;;;;;5060195;28;20216;-78
2023/05/24 07:43:08;;;;;;;0.20;0.20;;;20.10;99.90;;;;;;5060687;28;20035;-78
2023/05/24 07:45:34;;;;;;;0.20;0.20;;;20.20;99.90;;;;;;5060015;28;20020;-76
2023/05/24 07:48:00;;;;;;;0.93;0.88;;;20.40;99.90;;;;;;5042702;28;20028;-78
2023/05/24 07:50:32;;;;;;;2.80;1.00;;;21.60;99.90;;;;;;5043920;28;20024;-78
2023/05/24 07:53:00;;;;;;;0.30;0.30;;;20.40;99.90;;;;;;5043446;28;20040;-77
2023/05/24 07:55:28;;;;;;;0.38;0.38;;;20.70;99.90;;;;;;5043571;28;20082;-77
2023/05/24 07:57:55;;;;;;;0.10;0.10;;;20.70;99.90;;;;;;5044046;28;20020;-77
2023/05/24 08:00:21;;;;;;;0.10;0.10;;;20.80;99.90;;;;;;5043687;28;20024;-76
2023/05/24 08:02:47;;;;;;;0.15;0.15;;;20.90;99.90;;;;;;5042996;28;20028;-77
2023/05/24 08:05:14;;;;;;;3.30;1.75;;;19.90;99.90;;;;;;5042900;28;20024;-77
2023/05/24 08:07:42;;;;;;;0.65;0.65;;;21.80;99.90;;;;;;5043353;28;20571;-77
2023/05/24 08:10:12;;;;;;;0.50;0.50;;;21.20;99.90;;;;;;5042718;28;20024;-76
2023/05/24 08:12:38;;;;;;;0.43;0.43;;;21.20;99.90;;;;;;5042994;28;20045;-77
2023/05/24 08:15:05;;;;;;;0.10;0.10;;;21.00;99.90;;;;;;5042950;28;20086;-80
2023/05/24 08:17:34;;;;;;;0.50;0.50;;;21.20;99.90;;;;;;5042569;28;20028;-77
2023/05/24 08:19:59;;;;;;;0.32;0.32;;;21.60;99.90;;;;;;5061170;28;20025;-76
2023/05/24 08:22:25;;;;;;;0.88;0.80;;;21.60;99.90;;;;;;5061319;28;20685;-76
2023/05/24 08:24:52;;;;;;;1.67;1.00;;;21.60;99.90;;;;;;5043462;28;20016;-76
2023/05/24 08:27:18;;;;;;;0.20;0.20;;;22.60;99.90;;;;;;5048220;28;20109;-76
2023/05/24 08:29:46;;;;;;;1.50;1.40;;;21.90;99.90;;;;;;5072178;28;20033;-78
2023/05/24 08:32:11;;;;;;;0.10;0.10;;;22.10;99.90;;;;;;5067566;28;20036;-83
2023/05/24 08:34:38;;;;;;;0.28;0.28;;;22.10;99.90;;;;;;5063473;28;20028;-88
2023/05/24 08:37:18;;;;;;;0.45;0.45;;;22.30;99.90;;;;;;5062771;28;20704;-77
2023/05/24 08:39:44;;;;;;;0.30;0.30;;;22.10;99.90;;;;;;5040379;28;20658;-77
2023/05/24 08:42:10;;;;;;;0.10;0.10;;;22.40;99.90;;;;;;5043139;28;20029;-77
2023/05/24 08:45:02;;;;;;;0.20;0.20;;;22.70;99.90;;;;;;5060069;28;20028;-77
2023/05/24 08:47:30;;;;;;;0.10;0.10;;;23.10;99.90;;;;;;5059885;28;20043;-77
2023/05/24 08:49:56;;;;;;;0.30;0.30;;;23.30;99.90;;;;;;5058464;28;20563;-77
2023/05/24 08:52:22;;;;;;;0.90;0.90;;;23.30;99.90;;;;;;5060346;28;20059;-84
2023/05/24 08:54:52;;;;;;;0.22;0.22;;;23.40;99.90;;;;;;5062726;28;20104;-77
2023/05/24 08:57:19;;;;;;;0.10;0.10;;;25.10;99.90;;;;;;5063315;28;20104;-79
2023/05/24 08:59:51;;;;;;;0.10;0.10;;;23.90;99.90;;;;;;5062461;28;20063;-86
2023/05/24 09:02:17;;;;;;;0.57;0.57;;;24.20;99.90;;;;;;5060193;28;20207;-77
2023/05/24 09:04:47;;;;;;;0.10;0.10;;;22.90;99.90;;;;;;5041827;28;20238;-77
2023/05/24 09:07:16;;;;;;;0.10;0.10;;;24.50;99.90;;;;;;5041574;28;20077;-77
2023/05/24 09:09:46;;;;;;;0.60;0.60;;;24.70;99.00;;;;;;5041850;28;20017;-77
2023/05/24 09:12:17;;;;;;;0.10;0.10;;;24.50;99.20;;;;;;5042161;28;20036;-86
2023/05/24 09:14:54;;;;;;;0.25;0.25;;;24.50;99.00;;;;;;5043049;28;20056;-77
2023/05/24 09:17:23;;;;;;;0.10;0.10;;;24.90;99.70;;;;;;5041963;28;20598;-77
2023/05/24 09:19:51;;;;;;;0.20;0.20;;;24.40;99.00;;;;;;5041633;28;20524;-77
2023/05/24 09:22:19;;;;;;;0.35;0.30;;;24.80;98.90;;;;;;5042060;28;20050;-77
2023/05/24 09:24:59;;;;;;;0.10;0.10;;;24.60;99.30;;;;;;5041700;28;20116;-80
2023/05/24 09:27:25;;;;;;;0.10;0.10;;;24.80;98.70;;;;;;5042998;28;20020;-78
2023/05/24 09:30:23;;;;;;;0.38;0.35;;;24.60;99.00;;;;;;5041619;28;20028;-77
2023/05/24 09:32:57;;;;;;;0.20;0.20;;;24.80;98.00;;;;;;4960411;28;20041;-77
2023/05/24 09:35:25;;;;;;;0.15;0.15;;;24.80;98.30;;;;;;4961631;28;20578;-80
2023/05/24 09:37:58;;;;;;;0.10;0.10;;;25.30;98.50;;;;;;4976903;28;20030;-77
2023/05/24 09:40:25;;;;;;;0.30;0.30;;;25.00;97.80;;;;;;4958880;28;20544;-77
2023/05/24 09:43:08;;;;;;;0.20;0.20;;;25.10;98.00;;;;;;4962336;28;20117;-77
2023/05/24 09:45:56;;;;;;;0.10;0.10;;;25.20;97.70;;;;;;4960613;28;20064;-77
2023/05/24 09:48:23;;;;;;;0.10;0.10;;;25.20;96.10;;;;;;4976034;28;20041;-78
2023/05/24 09:51:08;;;;;;;0.28;0.28;;;25.50;97.10;;;;;;4961260;28;20598;-77
2023/05/24 09:53:47;;;;;;;0.25;0.25;;;25.70;94.70;;;;;;4961964;28;20225;-78
2023/05/24 09:56:14;;;;;;;0.28;0.28;;;28.40;94.90;;;;;;4975709;28;20035;-78
2023/05/24 09:58:41;;;;;;;0.20;0.20;;;26.30;93.90;;;;;;4959311;28;20183;-77
2023/05/24 10:01:12;;;;;;;0.10;0.10;;;26.20;94.20;;;;;;4959546;28;20109;-77
2023/05/24 10:03:38;;;;;;;0.20;0.20;;;26.30;94.80;;;;;;4958839;28;20374;-83
2023/05/24 10:06:06;;;;;;;0.10;0.10;;;26.20;94.60;;;;;;4958499;28;20026;-78
2023/05/24 10:08:40;;;;;;;0.20;0.20;;;26.50;94.20;;;;;;4973856;28;20171;-77
2023/05/24 10:11:08;;;;;;;0.10;0.10;;;26.40;93.20;;;;;;5039245;28;20025;-78
2023/05/24 10:13:38;;;;;;;0.10;0.10;;;26.60;94.60;;;;;;5039165;28;20665;-77
2023/05/24 10:16:04;;;;;;;1.65;1.55;;;26.90;92.70;;;;;;5039466;28;20064;-77
2023/05/24 10:18:33;;;;;;;0.50;0.50;;;26.90;92.10;;;;;;5043359;28;20016;-81
2023/05/24 10:21:06;;;;;;;0.13;0.13;;;26.90;91.40;;;;;;5069431;28;20019;-78
2023/05/24 10:23:38;;;;;;;0.63;0.63;;;26.60;91.10;;;;;;5065848;28;20100;-76
2023/05/24 10:26:07;;;;;;;0.10;0.10;;;26.90;91.60;;;;;;5053302;28;20690;-80
2023/05/24 10:28:42;;;;;;;0.93;0.90;;;27.30;91.10;;;;;;5069022;28;20052;-85
2023/05/24 10:31:22;;;;;;;0.03;0.03;;;27.50;89.00;;;;;;5047576;28;20622;-82
2023/05/24 10:33:52;;;;;;;0.63;0.63;;;27.50;87.30;;;;;;5040439;28;20090;-76
2023/05/24 10:36:18;;;;;;;0.10;0.10;;;27.60;85.00;;;;;;5040757;28;20102;-76
2023/05/24 10:38:51;;;;;;;1.33;1.23;;;27.50;83.10;;;;;;5041487;28;20190;-81
2023/05/24 10:41:22;;;;;;;0.10;0.10;;;27.00;83.30;;;;;;5039589;28;20016;-77
2023/05/24 10:43:50;;;;;;;0.30;0.30;;;27.00;82.20;;;;;;5041039;28;20266;-76
2023/05/24 10:46:20;;;;;;;0.10;0.10;;;26.80;82.60;;;;;;5042780;28;20075;-76
2023/05/24 10:49:08;;;;;;;0.38;0.38;;;25.50;82.20;;;;;;5046768;28;20158;-89
2023/05/24 10:51:38;;;;;;;0.15;0.15;;;29.00;85.90;;;;;;5045202;28;20028;-84
2023/05/24 10:54:14;;;;;;;0.10;0.10;;;26.90;82.70;;;;;;5064006;28;20044;-86
2023/05/24 10:56:45;;;;;;;0.15;0.15;;;27.00;82.30;;;;;;5046924;28;20776;-88
2023/05/24 10:59:24;;;;;;;0.20;0.20;;;28.00;80.40;;;;;;5065099;28;20051;-80
2023/05/24 11:01:57;;;;;;;0.10;0.10;;;27.30;79.50;;;;;;5064335;28;20775;-94
2023/05/24 11:04:24;;;;;;;0.15;0.15;;;27.10;76.80;;;;;;5065535;28;20097;-85
2023/05/24 11:07:01;;;;;;;0.10;0.10;;;27.70;77.90;;;;;;5066609;28;20021;-88
2023/05/24 11:09:28;;;;;;;0.98;0.93;;;27.90;76.50;;;;;;5063192;28;20082;-78
2023/05/24 11:11:58;;;;;;;0.22;0.22;;;28.10;76.10;;;;;;5062044;28;20013;-78
2023/05/24 11:14:28;;;;;;;0.20;0.20;;;28.20;74.60;;;;;;5049205;28;20064;-87
2023/05/24 11:16:54;;;;;;;0.10;0.10;;;28.50;73.70;;;;;;5047471;28;20643;-92
2023/05/24 11:19:21;;;;;;;0.17;0.13;;;28.60;72.60;;;;;;5049710;28;20146;-79
2023/05/24 11:21:50;;;;;;;0.30;0.30;;;28.90;72.50;;;;;;5072014;28;20044;-79
2023/05/24 11:24:17;;;;;;;0.38;0.38;;;28.60;71.60;;;;;;5064052;28;20195;-77
2023/05/24 11:26:44;;;;;;;1.90;0.98;;;28.70;71.40;;;;;;5047517;28;20039;-84
2023/05/24 11:29:21;;;;;;;0.20;0.20;;;28.00;72.40;;;;;;5071515;28;20025;-78
2023/05/24 11:32:03;;;;;;;0.17;0.17;;;27.60;73.10;;;;;;5062277;28;20074;-77
2023/05/24 11:34:39;;;;;;;1.40;0.43;;;27.30;74.10;;;;;;5062529;28;20105;-77
2023/05/24 11:37:06;;;;;;;0.10;0.10;;;27.00;74.30;;;;;;5067123;28;20043;-87
2023/05/24 11:39:34;;;;;;;0.17;0.15;;;26.80;76.70;;;;;;5051832;28;20040;-80
2023/05/24 11:42:02;;;;;;;3.60;0.80;;;26.60;76.90;;;;;;5070780;28;20008;-81
2023/05/24 11:44:30;;;;;;;0.10;0.10;;;25.90;80.60;;;;;;5069021;28;20031;-81
2023/05/24 11:50:00;;;;;;;0.20;0.20;;;24.40;85.10;;;;;;5000985;28;20131;-77
2023/05/24 11:52:26;;;;;;;0.30;0.30;;;23.30;93.00;;;;;;4989638;28;20057;-89
2023/05/24 11:54:53;;;;;;;1.17;1.05;;;22.40;99.90;;;;;;5000832;28;20044;-84
2023/05/24 11:57:27;;;;;;;0.20;0.20;;;21.60;99.90;;;;;;4983810;28;20029;-89
2023/05/24 11:59:54;;;;;;;0.70;0.70;;;20.70;99.90;;;;;;4983717;28;20036;-86
2023/05/24 12:02:20;;;;;;;4.07;3.72;;;;;;;;;;4999254;28;20034;-81
2023/05/24 12:04:46;;;;;;;2.75;2.58;;;19.10;99.90;;;;;;4998882;28;20540;-79
2023/05/24 12:07:23;;;;;;;0.22;0.22;;;18.70;99.90;;;;;;4998580;28;20116;-83
2023/05/24 12:09:49;;;;;;;0.10;0.10;;;17.80;99.90;;;;;;4981742;28;20524;-78
2023/05/24 12:12:18;;;;;;;0.20;0.20;;;17.70;99.90;;;;;;4982365;28;20045;-81
2023/05/24 12:14:46;;;;;;;7.85;7.45;;;17.60;99.90;;;;;;4998176;28;20073;-80
2023/05/24 12:17:18;;;;;;;0.10;0.10;;;17.50;99.90;;;;;;4998059;28;20029;-84
2023/05/24 12:19:49;;;;;;;0.10;0.10;;;17.20;99.90;;;;;;4997708;28;20022;-80
2023/05/24 12:22:15;;;;;;;0.55;0.55;;;17.50;99.90;;;;;;4998442;28;20520;-84
2023/05/24 12:24:51;;;;;;;0.17;0.17;;;17.00;99.90;;;;;;4998322;28;20033;-78
2023/05/24 12:27:55;;;;;;;0.20;0.20;;;16.60;99.90;;;;;;5016554;28;20021;-94
2023/05/24 12:30:43;;;;;;;0.10;0.10;;;16.50;99.90;;;;;;4958954;28;20046;-93
2023/05/24 12:33:17;;;;;;;0.20;0.20;;;15.00;99.90;;;;;;4942122;28;20115;-78
2023/05/24 12:35:43;;;;;;;0.30;0.30;;;16.30;99.90;;;;;;4943682;28;20081;-82
2023/05/24 12:38:24;;;;;;;4.20;3.95;;;16.00;99.90;;;;;;4959160;28;20039;-92
2023/05/24 12:41:04;;;;;;;0.10;0.10;;;16.20;99.90;;;;;;4960705;28;20027;-88
2023/05/24 12:43:37;;;;;;;5.78;3.38;;;16.10;99.90;;;;;;4943067;28;20042;-79
2023/05/24 12:46:03;;;;;;;0.10;0.10;;;17.80;99.90;;;;;;4959759;28;20019;-92
2023/05/24 12:48:32;;;;;;;0.13;0.13;;;16.00;99.90;;;;;;4960314;28;20689;-78
2023/05/24 12:50:57;;;;;;;0.20;0.20;;;16.00;99.90;;;;;;4944006;28;20033;-92
2023/05/24 12:53:24;;;;;;;0.20;0.20;;;16.00;99.90;;;;;;4960018;28;20126;-79
2023/05/24 12:55:54;;;;;;;0.20;0.20;;;15.10;99.90;;;;;;4942152;28;20030;-78
2023/05/24 12:58:27;;;;;;;0.20;0.20;;;12.90;99.90;;;;;;4942319;28;20025;-77
2023/05/24 13:00:56;;;;;;;0.10;0.10;;;15.80;99.90;;;;;;5033251;28;20036;-93
2023/05/24 13:03:25;;;;;;;0.20;0.20;;;15.80;99.90;;;;;;5041513;28;20115;-89
2023/05/24 13:05:51;;;;;;;0.20;0.20;;;15.80;99.90;;;;;;5060242;28;20020;-78
2023/05/24 13:08:20;;;;;;;0.10;0.10;;;15.80;99.90;;;;;;5040215;28;20017;-79
2023/05/24 13:10:52;;;;;;;0.10;0.10;;;15.80;99.90;;;;;;5041248;28;20020;-78